createdAt,value
2017-11-18T00:00:49.487Z,100589.59
2017-11-18T00:03:15.757Z,100587.11
2017-11-18T00:05:42.045Z,100579.52
2017-11-18T00:08:08.390Z,100583.45
2017-11-18T00:10:35.384Z,100580.98
2017-11-18T00:13:01.686Z,100581.25
2017-11-18T00:15:27.932Z,100574.73
2017-11-18T00:17:54.199Z,100570.36
2017-11-18T00:20:20.484Z,100574.75
2017-11-18T00:22:47.014Z,100571.14
2017-11-18T00:25:14.050Z,100573.37
2017-11-18T00:27:41.031Z,100562.89
2017-11-18T00:30:07.411Z,100568.83
2017-11-18T00:32:33.671Z,100555.59
2017-11-18T00:34:59.984Z,100562.63
2017-11-18T00:37:27.019Z,100558.48
2017-11-18T00:39:53.272Z,100552.46
2017-11-18T00:42:20.446Z,100545.03
2017-11-18T00:44:46.755Z,100544.77
2017-11-18T00:47:13.791Z,100548.47
2017-11-18T00:49:40.774Z,100551.27
2017-11-18T00:52:07.065Z,100551.72
2017-11-18T00:54:34.081Z,100553.55
2017-11-18T00:57:01.214Z,100555.81
2017-11-18T00:59:27.521Z,100550.80
2017-11-18T01:01:53.798Z,100555.03
2017-11-18T01:04:20.121Z,100557.12
2017-11-18T01:06:46.396Z,100556.07
2017-11-18T01:09:13.434Z,100557.45
2017-11-18T01:11:41.413Z,100559.74
2017-11-18T01:14:08.453Z,100557.38
2017-11-18T01:16:35.494Z,100560.20
2017-11-18T01:19:02.567Z,100555.10
2017-11-18T01:21:28.904Z,100546.69
2017-11-18T01:23:55.246Z,100547.63
2017-11-18T01:26:21.495Z,100540.48
2017-11-18T01:28:47.780Z,100535.18
2017-11-18T01:31:14.759Z,100537.02
2017-11-18T01:33:41.095Z,100536.80
2017-11-18T01:36:07.389Z,100540.02
2017-11-18T01:38:34.396Z,100539.44
2017-11-18T01:41:00.720Z,100543.50
2017-11-18T01:43:26.988Z,100542.74
2017-11-18T01:45:54.003Z,100534.81
2017-11-18T01:48:20.314Z,100534.20
2017-11-18T01:50:46.634Z,100532.38
2017-11-18T01:53:12.939Z,100530.70
2017-11-18T01:55:39.260Z,100527.72
2017-11-18T01:58:06.338Z,100529.58
2017-11-18T02:00:32.632Z,100531.45
2017-11-18T02:02:59.650Z,100537.70
2017-11-18T02:05:25.921Z,100535.28
2017-11-18T02:07:52.909Z,100525.55
2017-11-18T02:10:19.271Z,100526.89
2017-11-18T02:12:45.549Z,100528.84
2017-11-18T02:15:12.030Z,100524.35
2017-11-18T02:17:38.304Z,100531.25
2017-11-18T02:20:04.639Z,100523.81
2017-11-18T02:22:31.005Z,100514.04
2017-11-18T02:24:57.337Z,100503.12
2017-11-18T02:27:23.660Z,100492.51
2017-11-18T02:29:49.997Z,100492.09
2017-11-18T02:32:16.269Z,100492.99
2017-11-18T02:34:43.340Z,100497.75
2017-11-18T02:37:09.596Z,100493.27
2017-11-18T02:39:35.888Z,100489.45
2017-11-18T02:42:02.157Z,100492.77
2017-11-18T02:44:28.446Z,100484.09
2017-11-18T02:46:55.458Z,100477.16
2017-11-18T02:49:21.718Z,100469.19
2017-11-18T02:51:48.846Z,100468.39
2017-11-18T02:54:15.102Z,100464.95
2017-11-18T02:56:42.186Z,100474.92
2017-11-18T02:59:08.452Z,100472.00
2017-11-18T03:01:35.524Z,100482.30
2017-11-18T03:04:02.550Z,100474.69
2017-11-18T03:06:28.817Z,100468.20
2017-11-18T03:08:55.927Z,100456.11
2017-11-18T03:11:22.215Z,100455.69
2017-11-18T03:13:48.518Z,100451.80
2017-11-18T03:16:15.529Z,100444.41
2017-11-18T03:18:41.781Z,100446.33
2017-11-18T03:21:08.046Z,100446.59
2017-11-18T03:23:34.336Z,100435.00
2017-11-18T03:26:00.623Z,100444.52
2017-11-18T03:28:26.881Z,100435.61
2017-11-18T03:30:53.167Z,100426.77
2017-11-18T03:33:19.467Z,100426.53
2017-11-18T03:35:46.518Z,100425.23
2017-11-18T03:38:13.524Z,100429.50
2017-11-18T03:40:39.826Z,100424.63
2017-11-18T03:43:06.119Z,100416.78
2017-11-18T03:45:32.378Z,100409.55
2017-11-18T03:47:58.630Z,100413.37
2017-11-18T03:50:24.890Z,100406.23
2017-11-18T03:52:51.148Z,100396.52
2017-11-18T03:55:18.187Z,100401.48
2017-11-18T03:57:45.178Z,100390.58
2017-11-18T04:00:11.426Z,100384.84
2017-11-18T04:02:37.716Z,100390.55
2017-11-18T04:05:04.015Z,100389.25
2017-11-18T04:07:30.286Z,100387.80
2017-11-18T04:09:56.585Z,100394.39
2017-11-18T04:12:23.633Z,100382.94
2017-11-18T04:14:50.678Z,100387.65
2017-11-18T04:17:17.694Z,100385.27
2017-11-18T04:19:43.978Z,100380.51
2017-11-18T04:22:10.278Z,100376.48
2017-11-18T04:24:37.311Z,100377.67
2017-11-18T04:27:03.577Z,100374.62
2017-11-18T04:29:30.629Z,100379.05
2017-11-18T04:31:57.692Z,100376.41
2017-11-18T04:34:23.962Z,100375.23
2017-11-18T04:36:50.462Z,100372.52
2017-11-18T04:39:16.757Z,100369.04
2017-11-18T04:41:43.780Z,100371.14
2017-11-18T04:44:10.056Z,100365.30
2017-11-18T04:46:36.408Z,100359.02
2017-11-18T04:49:02.699Z,100362.48
2017-11-18T04:51:29.728Z,100359.61
2017-11-18T04:53:56.024Z,100358.79
2017-11-18T04:56:23.682Z,100352.74
2017-11-18T04:58:49.966Z,100348.51
2017-11-18T05:01:17.816Z,100346.47
2017-11-18T05:03:44.103Z,100348.25
2017-11-18T05:06:10.386Z,100338.17
2017-11-18T05:08:37.489Z,100332.45
2017-11-18T05:11:03.921Z,100333.56
2017-11-18T05:13:30.253Z,100339.22
2017-11-18T05:15:56.543Z,100336.70
2017-11-18T05:18:23.553Z,100336.30
2017-11-18T05:20:49.841Z,100330.79
2017-11-18T05:23:16.129Z,100324.69
2017-11-18T05:25:42.466Z,100320.39
2017-11-18T05:28:09.495Z,100324.53
2017-11-18T05:30:35.756Z,100317.13
2017-11-18T05:33:02.034Z,100304.50
2017-11-18T05:35:28.341Z,100308.50
2017-11-18T05:37:54.654Z,100306.99
2017-11-18T05:40:21.668Z,100305.30
2017-11-18T05:42:48.114Z,100306.13
2017-11-18T05:45:14.413Z,100308.86
2017-11-18T05:47:40.688Z,100304.47
2017-11-18T05:50:07.740Z,100305.78
2017-11-18T05:52:34.777Z,100308.55
2017-11-18T05:55:01.818Z,100307.87
2017-11-18T05:57:28.139Z,100309.35
2017-11-18T05:59:54.417Z,100301.17
2017-11-18T06:02:20.804Z,100299.92
2017-11-18T06:04:47.871Z,100297.47
2017-11-18T06:07:14.145Z,100289.50
2017-11-18T06:09:40.441Z,100294.65
2017-11-18T06:12:06.761Z,100291.41
2017-11-18T06:14:33.122Z,100291.05
2017-11-18T06:16:59.408Z,100291.94
2017-11-18T06:19:25.689Z,100289.76
2017-11-18T06:21:51.979Z,100291.87
2017-11-18T06:24:18.293Z,100289.72
2017-11-18T06:26:44.571Z,100292.63
2017-11-18T06:29:10.879Z,100294.99
2017-11-18T06:31:37.941Z,100297.45
2017-11-18T06:34:04.947Z,100287.46
2017-11-18T06:36:31.227Z,100295.63
2017-11-18T06:38:57.483Z,100293.43
2017-11-18T06:41:23.764Z,100293.66
2017-11-18T06:43:50.773Z,100294.86
2017-11-18T06:46:17.074Z,100310.91
2017-11-18T06:48:43.399Z,100311.22
2017-11-18T06:51:09.706Z,100305.62
2017-11-18T06:53:36.703Z,100304.41
2017-11-18T06:56:03.018Z,100301.07
2017-11-18T06:58:29.288Z,100280.89
2017-11-18T07:00:55.612Z,100287.10
2017-11-18T07:03:22.693Z,100282.80
2017-11-18T07:05:49.764Z,100283.20
2017-11-18T07:08:16.043Z,100269.70
2017-11-18T07:10:42.414Z,100268.24
2017-11-18T07:13:08.703Z,100269.23
2017-11-18T07:15:35.011Z,100269.42
2017-11-18T07:18:01.353Z,100260.95
2017-11-18T07:20:27.625Z,100263.80
2017-11-18T07:22:54.693Z,100251.98
2017-11-18T07:25:21.066Z,100258.74
2017-11-18T07:27:47.329Z,100259.65
2017-11-18T07:30:14.375Z,100260.38
2017-11-18T07:32:41.404Z,100261.72
2017-11-18T07:35:07.738Z,100258.41
2017-11-18T07:37:34.854Z,100263.03
2017-11-18T07:40:01.175Z,100261.64
2017-11-18T07:42:27.452Z,100254.77
2017-11-18T07:44:53.720Z,100256.82
2017-11-18T07:47:20.012Z,100252.92
2017-11-18T07:49:47.099Z,100247.25
2017-11-18T07:52:13.391Z,100248.05
2017-11-18T07:54:40.418Z,100248.69
2017-11-18T07:57:06.779Z,100250.70
2017-11-18T07:59:33.055Z,100248.72
2017-11-18T08:01:59.387Z,100249.24
2017-11-18T08:04:25.687Z,100245.08
2017-11-18T08:06:52.707Z,100243.98
2017-11-18T08:09:18.985Z,100242.94
2017-11-18T08:11:45.266Z,100239.68
2017-11-18T08:14:11.680Z,100242.92
2017-11-18T08:16:37.995Z,100241.28
2017-11-18T08:19:04.328Z,100240.19
2017-11-18T08:21:30.729Z,100229.78
2017-11-18T08:23:57.008Z,100226.27
2017-11-18T08:26:23.309Z,100225.84
2017-11-18T08:28:49.635Z,100216.28
2017-11-18T08:31:16.122Z,100216.31
2017-11-18T08:33:42.417Z,100210.26
2017-11-18T08:36:27.469Z,100212.68
2017-11-18T08:38:53.747Z,100209.77
2017-11-18T08:41:20.001Z,100204.27
2017-11-18T08:43:47.044Z,100208.43
2017-11-18T08:46:14.079Z,100208.41
2017-11-18T08:48:40.369Z,100209.77
2017-11-18T08:51:06.673Z,100198.16
2017-11-18T08:53:32.953Z,100190.81
2017-11-18T08:55:59.331Z,100188.21
2017-11-18T08:58:25.685Z,100187.21
2017-11-18T09:00:52.121Z,100180.70
2017-11-18T09:03:18.448Z,100170.84
2017-11-18T09:05:44.824Z,100173.41
2017-11-18T09:08:11.101Z,100161.17
2017-11-18T09:10:37.540Z,100168.53
2017-11-18T09:13:03.902Z,100163.23
2017-11-18T09:15:30.253Z,100165.27
2017-11-18T09:17:56.550Z,100164.25
2017-11-18T09:20:22.862Z,100158.14
2017-11-18T09:22:49.166Z,100158.78
2017-11-18T09:25:16.176Z,100156.16
2017-11-18T09:27:42.466Z,100153.08
2017-11-18T09:30:08.805Z,100150.28
2017-11-18T09:32:35.099Z,100157.44
2017-11-18T09:35:01.392Z,100148.27
2017-11-18T09:37:27.678Z,100140.83
2017-11-18T09:39:54.723Z,100141.50
2017-11-18T09:42:21.003Z,100140.55
2017-11-18T09:44:47.319Z,100143.33
2017-11-18T09:47:13.621Z,100136.54
2017-11-18T09:49:40.691Z,100131.35
2017-11-18T09:52:07.053Z,100127.77
2017-11-18T09:54:33.359Z,100126.23
2017-11-18T09:56:59.690Z,100133.01
2017-11-18T09:59:25.987Z,100118.95
2017-11-18T10:01:53.034Z,100105.33
2017-11-18T10:04:20.131Z,100106.58
2017-11-18T10:06:46.416Z,100115.88
2017-11-18T10:09:13.476Z,100110.33
2017-11-18T10:11:39.793Z,100113.21
2017-11-18T10:14:06.937Z,100111.02
2017-11-18T10:16:34.173Z,100095.80
2017-11-18T10:19:00.501Z,100093.96
2017-11-18T10:21:27.537Z,100092.88
2017-11-18T10:23:53.838Z,100077.50
2017-11-18T10:26:20.175Z,100074.75
2017-11-18T10:28:46.510Z,100070.21
2017-11-18T10:31:12.807Z,100066.33
2017-11-18T10:33:39.112Z,100069.23
2017-11-18T10:36:05.443Z,100066.20
2017-11-18T10:38:33.022Z,100057.80
2017-11-18T10:41:00.072Z,100051.92
2017-11-18T10:43:27.206Z,100053.93
2017-11-18T10:45:54.267Z,100038.91
2017-11-18T10:48:21.320Z,100043.63
2017-11-18T10:50:47.616Z,100040.98
2017-11-18T10:53:13.967Z,100031.09
2017-11-18T10:55:40.975Z,100032.31
2017-11-18T10:58:07.284Z,100029.42
2017-11-18T11:00:33.585Z,100018.21
2017-11-18T11:03:00.642Z,100015.23
2017-11-18T11:05:27.038Z,100016.04
2017-11-18T11:07:54.780Z,100011.38
2017-11-18T11:10:21.099Z,100007.91
2017-11-18T11:12:47.413Z,100008.62
2017-11-18T11:15:13.750Z,100001.95
2017-11-18T11:17:40.050Z,100003.42
2017-11-18T11:20:07.095Z,100006.02
2017-11-18T11:22:34.193Z,99999.52
2017-11-18T11:25:00.500Z,99985.84
2017-11-18T11:27:26.817Z,99991.83
2017-11-18T11:29:53.152Z,99996.03
2017-11-18T11:32:19.446Z,99990.86
2017-11-18T11:34:45.753Z,99977.22
2017-11-18T11:37:12.076Z,99977.71
2017-11-18T11:39:38.410Z,99980.33
2017-11-18T11:42:04.730Z,99972.91
2017-11-18T11:44:31.050Z,99951.69
2017-11-18T11:46:57.379Z,99964.42
2017-11-18T11:49:23.661Z,99953.35
2017-11-18T11:51:50.285Z,99958.02
2017-11-18T11:54:16.735Z,99955.33
2017-11-18T11:56:43.814Z,99956.37
2017-11-18T11:59:10.129Z,99955.65
2017-11-18T12:01:37.275Z,99958.81
2017-11-18T12:04:03.774Z,99949.63
2017-11-18T12:06:30.090Z,99957.38
2017-11-18T12:08:56.380Z,99947.39
2017-11-18T12:11:23.515Z,99953.04
2017-11-18T12:13:50.603Z,99938.53
2017-11-18T12:16:16.929Z,99941.41
2017-11-18T12:18:43.216Z,99938.56
2017-11-18T12:21:09.567Z,99935.98
2017-11-18T12:23:36.685Z,99926.39
2017-11-18T12:26:03.051Z,99928.11
2017-11-18T12:28:30.122Z,99924.77
2017-11-18T12:30:56.619Z,99922.37
2017-11-18T12:33:22.995Z,99921.53
2017-11-18T12:35:49.315Z,99914.65
2017-11-18T12:38:16.455Z,99913.57
2017-11-18T12:40:43.535Z,99912.56
2017-11-18T12:43:09.829Z,99907.36
2017-11-18T12:45:36.909Z,99900.42
2017-11-18T12:48:03.258Z,99893.80
2017-11-18T12:50:29.573Z,99873.73
2017-11-18T12:52:55.930Z,99888.44
2017-11-18T12:55:22.300Z,99882.27
2017-11-18T12:57:49.366Z,99871.89
2017-11-18T13:00:16.411Z,99875.41
2017-11-18T13:02:42.732Z,99875.08
2017-11-18T13:05:09.782Z,99869.20
2017-11-18T13:07:36.831Z,99869.06
2017-11-18T13:10:03.856Z,99855.74
2017-11-18T13:12:30.199Z,99856.33
2017-11-18T13:14:56.501Z,99855.19
2017-11-18T13:17:22.816Z,99852.52
2017-11-18T13:19:49.149Z,99844.89
2017-11-18T13:22:15.447Z,99840.02
2017-11-18T13:24:41.895Z,99837.81
2017-11-18T13:27:08.210Z,99831.01
2017-11-18T13:29:34.546Z,99830.14
2017-11-18T13:32:00.894Z,99828.30
2017-11-18T13:34:27.183Z,99830.05
2017-11-18T13:36:54.229Z,99819.41
2017-11-18T13:39:20.550Z,99827.44
2017-11-18T13:41:46.834Z,99817.33
2017-11-18T13:44:13.146Z,99818.13
2017-11-18T13:46:39.449Z,99806.27
2017-11-18T13:49:05.730Z,99804.62
2017-11-18T13:51:32.046Z,99804.15
2017-11-18T13:53:58.375Z,99782.52
2017-11-18T13:56:24.862Z,99795.34
2017-11-18T13:58:51.119Z,99791.72
2017-11-18T14:01:18.158Z,99782.97
2017-11-18T14:03:45.195Z,99787.43
2017-11-18T14:06:11.563Z,99790.11
2017-11-18T14:08:37.948Z,99790.98
2017-11-18T14:11:04.302Z,99782.57
2017-11-18T14:13:31.427Z,99782.08
2017-11-18T14:15:57.713Z,99777.56
2017-11-18T14:18:24.023Z,99767.06
2017-11-18T14:20:51.049Z,99768.19
2017-11-18T14:23:17.367Z,99767.56
2017-11-18T14:25:43.707Z,99761.80
2017-11-18T14:28:11.581Z,99761.89
2017-11-18T14:30:37.878Z,99754.03
2017-11-18T14:33:04.309Z,99751.42
2017-11-18T14:35:30.572Z,99748.73
2017-11-18T14:37:56.946Z,99747.42
2017-11-18T14:40:23.271Z,99735.80
2017-11-18T14:42:49.603Z,99755.26
2017-11-18T14:45:15.962Z,99729.84
2017-11-18T14:47:42.297Z,99729.95
2017-11-18T14:50:08.598Z,99722.73
2017-11-18T14:52:34.932Z,99720.73
2017-11-18T14:55:01.298Z,99714.05
2017-11-18T14:57:27.692Z,99697.45
2017-11-18T14:59:53.998Z,99704.57
2017-11-18T15:02:21.069Z,99686.77
2017-11-18T15:04:47.502Z,99683.79
2017-11-18T15:07:13.865Z,99676.66
2017-11-18T15:09:40.219Z,99672.55
2017-11-18T15:12:06.626Z,99671.46
2017-11-18T15:14:39.084Z,99651.39
2017-11-18T15:20:21.519Z,99659.48
2017-11-18T15:22:54.682Z,99652.56
2017-11-18T15:25:28.744Z,99640.56
2017-11-18T15:28:02.640Z,99642.37
2017-11-18T15:30:35.608Z,99641.36
2017-11-18T15:33:04.013Z,99624.06
2017-11-18T15:35:32.083Z,99625.13
2017-11-18T15:41:10.717Z,99609.63
2017-11-18T15:43:41.978Z,99590.16
2017-11-18T15:46:11.068Z,99593.30
2017-11-18T15:48:45.586Z,99590.58
2017-11-18T15:51:17.037Z,99582.97
2017-11-18T15:53:59.858Z,99591.02
2017-11-18T15:56:31.000Z,99568.66
2017-11-18T15:58:59.278Z,99569.83
2017-11-18T16:01:33.113Z,99580.45
2017-11-18T16:04:02.297Z,99572.19
2017-11-18T16:06:43.049Z,99570.88
2017-11-18T16:09:10.300Z,99563.55
2017-11-18T16:11:37.497Z,99568.38
2017-11-18T16:14:05.918Z,99588.80
2017-11-18T16:16:33.802Z,99565.52
2017-11-18T16:19:02.101Z,99554.45
2017-11-18T16:21:29.344Z,99558.80
2017-11-18T16:23:56.786Z,99554.06
2017-11-18T16:26:24.088Z,99556.08
2017-11-18T16:28:52.031Z,99565.14
2017-11-18T16:31:20.021Z,99556.63
2017-11-18T16:33:47.758Z,99557.75
2017-11-18T16:36:14.950Z,99552.34
2017-11-18T16:38:42.119Z,99553.77
2017-11-18T16:41:08.470Z,99543.87
2017-11-18T16:43:34.812Z,99547.31
2017-11-18T16:46:01.202Z,99541.76
2017-11-18T16:48:28.285Z,99548.44
2017-11-18T16:50:54.659Z,99541.06
2017-11-18T16:53:20.970Z,99539.80
2017-11-18T16:55:47.397Z,99535.87
2017-11-18T16:58:13.719Z,99532.06
2017-11-18T17:00:40.067Z,99526.11
2017-11-18T17:03:06.472Z,99512.45
2017-11-18T17:05:32.783Z,99530.70
2017-11-18T17:07:59.905Z,99521.00
2017-11-18T17:10:26.219Z,99519.66
2017-11-18T17:12:52.643Z,99528.03
2017-11-18T17:15:18.943Z,99522.91
2017-11-18T17:17:45.383Z,99505.51
2017-11-18T17:20:11.708Z,99513.09
2017-11-18T17:22:38.053Z,99503.37
2017-11-18T17:25:04.453Z,99502.24
2017-11-18T17:27:31.524Z,99500.64
2017-11-18T17:29:57.957Z,99510.55
2017-11-18T17:32:24.360Z,99514.20
2017-11-18T17:34:50.692Z,99503.55
2017-11-18T17:37:17.736Z,99505.97
2017-11-18T17:39:44.052Z,99504.80
2017-11-18T17:42:10.394Z,99509.42
2017-11-18T17:44:36.782Z,99470.78
2017-11-18T17:47:03.297Z,99495.52
2017-11-18T17:49:29.635Z,99484.90
2017-11-18T17:51:55.960Z,99495.81
2017-11-18T17:54:22.291Z,99491.09
2017-11-18T17:56:48.666Z,99494.93
2017-11-18T17:59:14.960Z,99506.22
2017-11-18T18:01:41.346Z,99489.39
2017-11-18T18:04:08.519Z,99497.28
2017-11-18T18:06:35.651Z,99493.66
2017-11-18T18:09:01.995Z,99517.13
2017-11-18T18:11:29.050Z,99515.03
2017-11-18T18:13:56.155Z,99506.83
2017-11-18T18:16:22.569Z,99506.06
2017-11-18T18:18:48.898Z,99507.19
2017-11-18T18:21:15.345Z,99511.45
2017-11-18T18:23:41.720Z,99509.97
2017-11-18T18:26:08.866Z,99510.94
2017-11-18T18:28:36.016Z,99521.97
2017-11-18T18:31:02.423Z,99506.97
2017-11-18T18:33:28.929Z,99524.48
2017-11-18T18:35:55.392Z,99508.81
2017-11-18T18:38:22.466Z,99511.51
2017-11-18T18:40:48.843Z,99515.88
2017-11-18T18:43:15.298Z,99510.45
2017-11-18T18:45:41.743Z,99508.56
2017-11-18T18:48:08.207Z,99503.54
2017-11-18T18:50:35.393Z,99511.58
2017-11-18T18:53:01.815Z,99502.72
2017-11-18T18:55:30.183Z,99508.70
2017-11-18T18:57:57.361Z,99513.36
2017-11-18T19:00:24.284Z,99505.84
2017-11-18T19:02:50.666Z,99512.72
2017-11-18T19:05:17.059Z,99498.17
2017-11-18T19:07:43.494Z,99502.51
2017-11-18T19:10:10.850Z,99501.05
2017-11-18T19:12:37.729Z,99524.47
2017-11-18T19:15:04.710Z,99504.70
2017-11-18T19:17:32.063Z,99505.20
2017-11-18T19:20:00.056Z,99497.34
2017-11-18T19:22:26.861Z,99494.85
2017-11-18T19:24:53.712Z,99497.30
2017-11-18T19:27:21.525Z,99494.77
2017-11-18T19:29:48.296Z,99479.75
2017-11-18T19:32:15.026Z,99498.58
2017-11-18T19:34:41.796Z,99506.88
2017-11-18T19:37:08.344Z,99513.03
2017-11-18T19:39:37.168Z,99502.47
2017-11-18T19:42:03.971Z,99505.22
2017-11-18T19:44:30.824Z,99502.14
2017-11-18T19:46:57.935Z,99483.98
2017-11-18T19:49:24.237Z,99504.66
2017-11-18T19:51:50.533Z,99512.50
2017-11-18T19:54:17.614Z,99505.32
2017-11-18T19:56:44.491Z,99524.70
2017-11-18T19:59:11.295Z,99516.61
2017-11-18T20:01:37.948Z,99513.23
2017-11-18T20:04:04.348Z,99518.37
2017-11-18T20:06:31.584Z,99515.89
2017-11-18T20:08:59.128Z,99523.80
2017-11-18T20:11:26.289Z,99529.79
2017-11-18T20:13:52.948Z,99538.80
2017-11-18T20:16:19.420Z,99520.28
2017-11-18T20:18:45.744Z,99539.35
2017-11-18T20:21:13.527Z,99537.39
2017-11-18T20:23:40.641Z,99539.62
2017-11-18T20:26:06.988Z,99537.09
2017-11-18T20:28:34.447Z,99544.72
2017-11-18T20:31:01.286Z,99536.05
2017-11-18T20:33:27.917Z,99542.58
2017-11-18T20:35:55.382Z,99526.22
2017-11-18T20:38:21.812Z,99536.31
2017-11-18T20:40:49.883Z,99530.76
2017-11-18T20:43:16.852Z,99546.20
2017-11-18T20:45:43.661Z,99533.23
2017-11-18T20:48:10.482Z,99545.34
2017-11-18T20:50:38.308Z,99537.78
2017-11-18T20:53:05.433Z,99526.45
2017-11-18T20:55:32.831Z,99522.53
2017-11-18T20:58:00.151Z,99526.86
2017-11-18T21:00:27.125Z,99523.63
2017-11-18T21:02:55.129Z,99511.33
2017-11-18T21:05:23.048Z,99522.60
2017-11-18T21:07:49.742Z,99511.17
2017-11-18T21:10:18.272Z,99513.45
2017-11-18T21:12:46.196Z,99516.88
2017-11-18T21:15:13.150Z,99512.75
2017-11-18T21:17:39.971Z,99507.62
2017-11-18T21:20:06.867Z,99515.55
2017-11-18T21:22:33.762Z,99510.80
2017-11-18T21:25:00.438Z,99515.50
2017-11-18T21:27:27.312Z,99524.77
2017-11-18T21:29:54.077Z,99519.23
2017-11-18T21:32:21.093Z,99514.69
2017-11-18T21:34:48.092Z,99524.34
2017-11-18T21:37:16.630Z,99515.77
2017-11-18T21:39:43.530Z,99516.48
2017-11-18T21:42:10.624Z,99524.44
2017-11-18T21:44:37.323Z,99526.84
2017-11-18T21:47:04.090Z,99516.41
2017-11-18T21:49:32.396Z,99525.84
2017-11-18T21:51:59.356Z,99519.94
2017-11-18T21:54:26.401Z,99520.34
2017-11-18T21:56:55.038Z,99515.08
2017-11-18T21:59:21.398Z,99520.20
2017-11-18T22:01:48.284Z,99512.55
2017-11-18T22:04:17.993Z,99512.60
2017-11-18T22:06:45.790Z,99528.33
2017-11-18T22:09:14.503Z,99511.88
2017-11-18T22:11:41.597Z,99509.62
2017-11-18T22:14:08.311Z,99511.55
2017-11-18T22:16:35.157Z,99515.56
2017-11-18T22:19:02.094Z,99510.53
2017-11-18T22:21:29.119Z,99519.38
2017-11-18T22:23:55.893Z,99521.17
2017-11-18T22:26:22.912Z,99521.17
2017-11-18T22:28:49.685Z,99518.81
2017-11-18T22:31:17.072Z,99518.20
2017-11-18T22:33:44.743Z,99512.70
2017-11-18T22:36:11.781Z,99506.44
2017-11-18T22:38:40.145Z,99514.45
2017-11-18T22:41:07.801Z,99508.39
2017-11-18T22:43:34.894Z,99509.84
2017-11-18T22:46:01.265Z,99510.67
2017-11-18T22:48:27.656Z,99513.53
2017-11-18T22:50:54.568Z,99511.11
2017-11-18T22:53:22.844Z,99513.71
2017-11-18T22:55:51.526Z,99511.42
2017-11-18T22:58:18.394Z,99505.78
2017-11-18T23:00:46.854Z,99503.14
2017-11-18T23:03:14.927Z,99496.35
2017-11-18T23:05:41.910Z,99482.69
2017-11-18T23:08:09.525Z,99491.64
2017-11-18T23:10:37.273Z,99494.28
2017-11-18T23:13:04.212Z,99491.50
2017-11-18T23:15:32.161Z,99486.34
2017-11-18T23:18:00.091Z,99494.70
2017-11-18T23:20:27.052Z,99491.50
2017-11-18T23:22:53.609Z,99493.02
2017-11-18T23:25:20.159Z,99494.33
2017-11-18T23:27:46.956Z,99488.06
2017-11-18T23:30:13.649Z,99482.87
2017-11-18T23:32:40.617Z,99484.81
2017-11-18T23:35:08.660Z,99480.63
2017-11-18T23:37:35.431Z,99485.86
2017-11-18T23:40:04.670Z,99491.40
2017-11-18T23:42:31.664Z,99488.55
2017-11-18T23:44:58.751Z,99481.00
2017-11-18T23:47:25.775Z,99477.80
2017-11-18T23:49:52.898Z,99466.34
2017-11-18T23:52:20.091Z,99458.91
2017-11-18T23:54:47.170Z,99465.82
2017-11-18T23:57:13.565Z,99464.70
2017-11-18T23:59:39.859Z,99467.55
